Big Bear Station Historical Data
Daily Summary for January 8, 2019 Units:  Both    English   Metric
Next Day »
Daily Weekly Monthly Yearly Custom
  High: Low: Average:
Temperature: 45.7 °F /  7.6 °C 22.8 °F /  -5.1 °C 34 °F /  1.1 °C
Dew Point: 34.4 °F /  1.3 °C 22.1 °F /  -5.5 °C 28.2 °F /  -2.1 °C
Humidity: 97% 56% 81%
Wind Speed: 9.4mph /  15.1km/h - 1.1mph /  1.8km/h
Wind Gust: -999.0mph /  -1607.7km/h - -
Wind- - SW
Pressure: 23.60 in /  799.1 hPa 23.51 in /  796 hPa -
Precipitation: 0.42 in /  10.67 mm    
Historical Graphs
 
 
Tabular Data for January 8, 2019
Time Temperature Dew Point Pressure Wind Wind Speed Wind Gust Humidity Rainfall Rate (Hourly)
00:03 25.3 °F /  -3.7 °C 24.6 °F /  -4.1 °C 23.59in /  798.8hPa Calm   -999.0mph /  -1607.7km/h 97% 0.00in /  0mm
00:18 25.0 °F /  -3.9 °C 24.3 °F /  -4.3 °C 23.59in /  798.8hPa Calm   -999.0mph /  -1607.7km/h 97% 0.00in /  0mm
00:34 24.8 °F /  -4 °C 24.1 °F /  -4.4 °C 23.59in /  798.8hPa Calm   -999.0mph /  -1607.7km/h 97% 0.00in /  0mm
00:49 25.0 °F /  -3.9 °C 24.3 °F /  -4.3 °C 23.59in /  798.8hPa Calm   -999.0mph /  -1607.7km/h 97% 0.00in /  0mm
01:04 24.6 °F /  -4.1 °C 23.9 °F /  -4.5 °C 23.60in /  799.1hPa Calm   -999.0mph /  -1607.7km/h 97% 0.00in /  0mm
01:19 24.4 °F /  -4.2 °C 23.7 °F /  -4.6 °C 23.60in /  799.1hPa Calm   -999.0mph /  -1607.7km/h 97% 0.00in /  0mm
01:34 24.4 °F /  -4.2 °C 23.7 °F /  -4.6 °C 23.60in /  799.1hPa Calm   -999.0mph /  -1607.7km/h 97% 0.00in /  0mm
01:50 24.3 °F /  -4.3 °C 23.6 °F /  -4.7 °C 23.60in /  799.1hPa Calm   -999.0mph /  -1607.7km/h 97% 0.00in /  0mm
02:05 24.1 °F /  -4.4 °C 23.4 °F /  -4.8 °C 23.60in /  799.1hPa Calm   -999.0mph /  -1607.7km/h 97% 0.00in /  0mm
02:20 23.7 °F /  -4.6 °C 23.0 °F /  -5 °C 23.60in /  799.1hPa Calm   -999.0mph /  -1607.7km/h 97% 0.00in /  0mm
02:35 23.7 °F /  -4.6 °C 23.0 °F /  -5 °C 23.60in /  799.1hPa Calm   -999.0mph /  -1607.7km/h 97% 0.00in /  0mm
02:50 23.5 °F /  -4.7 °C 22.8 °F /  -5.1 °C 23.59in /  798.8hPa Calm   -999.0mph /  -1607.7km/h 97% 0.00in /  0mm
03:06 23.5 °F /  -4.7 °C 22.8 °F /  -5.1 °C 23.59in /  798.8hPa Calm   -999.0mph /  -1607.7km/h 97% 0.00in /  0mm
03:21 23.5 °F /  -4.7 °C 22.8 °F /  -5.1 °C 23.58in /  798.4hPa Calm   -999.0mph /  -1607.7km/h 97% 0.00in /  0mm
03:36 23.4 °F /  -4.8 °C 22.7 °F /  -5.2 °C 23.58in /  798.4hPa Calm   -999.0mph /  -1607.7km/h 97% 0.00in /  0mm
03:51 23.4 °F /  -4.8 °C 22.7 °F /  -5.2 °C 23.58in /  798.4hPa Calm   -999.0mph /  -1607.7km/h 97% 0.00in /  0mm
04:06 23.4 °F /  -4.8 °C 22.7 °F /  -5.2 °C 23.58in /  798.4hPa Calm   -999.0mph /  -1607.7km/h 97% 0.00in /  0mm
04:22 23.4 °F /  -4.8 °C 22.7 °F /  -5.2 °C 23.57in /  798.1hPa Calm   -999.0mph /  -1607.7km/h 97% 0.00in /  0mm
04:37 23.7 °F /  -4.6 °C 23.0 °F /  -5 °C 23.57in /  798.1hPa Calm   -999.0mph /  -1607.7km/h 97% 0.00in /  0mm
04:52 23.2 °F /  -4.9 °C 22.5 °F /  -5.3 °C 23.57in /  798.1hPa Calm   -999.0mph /  -1607.7km/h 97% 0.00in /  0mm
05:07 23.2 °F /  -4.9 °C 22.5 °F /  -5.3 °C 23.57in /  798.1hPa Calm   -999.0mph /  -1607.7km/h 97% 0.00in /  0mm
05:22 23.4 °F /  -4.8 °C 22.7 °F /  -5.2 °C 23.57in /  798.1hPa Calm   -999.0mph /  -1607.7km/h 97% 0.00in /  0mm
05:38 23.2 °F /  -4.9 °C 22.5 °F /  -5.3 °C 23.57in /  798.1hPa Calm   -999.0mph /  -1607.7km/h 97% 0.00in /  0mm
05:53 23.2 °F /  -4.9 °C 22.5 °F /  -5.3 °C 23.57in /  798.1hPa Calm   -999.0mph /  -1607.7km/h 97% 0.00in /  0mm
06:08 23.2 °F /  -4.9 °C 22.5 °F /  -5.3 °C 23.57in /  798.1hPa Calm   -999.0mph /  -1607.7km/h 97% 0.00in /  0mm
06:23 23.2 °F /  -4.9 °C 22.5 °F /  -5.3 °C 23.57in /  798.1hPa Calm   -999.0mph /  -1607.7km/h 97% 0.00in /  0mm
06:39 23.4 °F /  -4.8 °C 22.7 °F /  -5.2 °C 23.57in /  798.1hPa Calm   -999.0mph /  -1607.7km/h 97% 0.00in /  0mm
06:54 23.0 °F /  -5 °C 22.3 °F /  -5.4 °C 23.57in /  798.1hPa Calm   -999.0mph /  -1607.7km/h 97% 0.00in /  0mm
07:09 22.8 °F /  -5.1 °C 22.1 °F /  -5.5 °C 23.57in /  798.1hPa Calm   -999.0mph /  -1607.7km/h 97% 0.00in /  0mm
07:24 23.0 °F /  -5 °C 22.3 °F /  -5.4 °C 23.57in /  798.1hPa Calm   -999.0mph /  -1607.7km/h 97% 0.00in /  0mm
07:39 23.0 °F /  -5 °C 22.3 °F /  -5.4 °C 23.57in /  798.1hPa Calm   -999.0mph /  -1607.7km/h 97% 0.00in /  0mm
07:55 23.2 °F /  -4.9 °C 22.2 °F /  -5.4 °C 23.57in /  798.1hPa Calm   -999.0mph /  -1607.7km/h 96% 0.00in /  0mm
08:10 24.3 °F /  -4.3 °C 23.3 °F /  -4.8 °C 23.57in /  798.1hPa Calm   -999.0mph /  -1607.7km/h 96% 0.00in /  0mm
08:25 25.0 °F /  -3.9 °C 24.0 °F /  -4.4 °C 23.57in /  798.1hPa Calm   -999.0mph /  -1607.7km/h 96% 0.00in /  0mm
08:40 25.3 °F /  -3.7 °C 24.3 °F /  -4.3 °C 23.58in /  798.4hPa Calm   -999.0mph /  -1607.7km/h 96% 0.00in /  0mm
08:55 25.9 °F /  -3.4 °C 24.9 °F /  -3.9 °C 23.58in /  798.4hPa Calm   -999.0mph /  -1607.7km/h 96% 0.00in /  0mm
09:11 27.0 °F /  -2.8 °C 26.0 °F /  -3.3 °C 23.58in /  798.4hPa Calm   -999.0mph /  -1607.7km/h 96% 0.00in /  0mm
09:26 28.8 °F /  -1.8 °C 27.8 °F /  -2.3 °C 23.58in /  798.4hPa Calm   -999.0mph /  -1607.7km/h 96% 0.00in /  0mm
09:41 30.4 °F /  -0.9 °C 29.4 °F /  -1.4 °C 23.58in /  798.4hPa Calm   -999.0mph /  -1607.7km/h 96% 0.00in /  0mm
09:56 32.0 °F /  0 °C 31.0 °F /  -0.6 °C 23.58in /  798.4hPa Calm   -999.0mph /  -1607.7km/h 96% 0.00in /  0mm
10:11 36.1 °F /  2.3 °C 33.2 °F /  0.7 °C 23.57in /  798.1hPa Calm   -999.0mph /  -1607.7km/h 89% 0.00in /  0mm
10:27 38.5 °F /  3.6 °C 34.4 °F /  1.3 °C 23.57in /  798.1hPa Calm   -999.0mph /  -1607.7km/h 85% 0.00in /  0mm
10:42 43.0 °F /  6.1 °C 30.5 °F /  -0.8 °C 23.57in /  798.1hPa SE 1.1mph /  1.8km/h -999.0mph /  -1607.7km/h 61% 0.00in /  0mm
10:57 43.5 °F /  6.4 °C 28.8 °F /  -1.8 °C 23.56in /  797.7hPa NE 4.2mph /  6.8km/h -999.0mph /  -1607.7km/h 56% 0.00in /  0mm
11:12 43.9 °F /  6.6 °C 29.2 °F /  -1.6 °C 23.56in /  797.7hPa West 4.7mph /  7.6km/h -999.0mph /  -1607.7km/h 56% 0.00in /  0mm
11:27 44.2 °F /  6.8 °C 29.9 °F /  -1.2 °C 23.55in /  797.4hPa NNW 2.7mph /  4.3km/h -999.0mph /  -1607.7km/h 57% 0.00in /  0mm
11:43 43.9 °F /  6.6 °C 30.5 °F /  -0.8 °C 23.54in /  797.1hPa NW 3.7mph /  6km/h -999.0mph /  -1607.7km/h 59% 0.00in /  0mm
11:58 43.5 °F /  6.4 °C 30.9 °F /  -0.6 °C 23.54in /  797.1hPa Calm   -999.0mph /  -1607.7km/h 61% 0.00in /  0mm
12:13 45.0 °F /  7.2 °C 31.9 °F /  -0.1 °C 23.54in /  797.1hPa NNE 2.7mph /  4.3km/h -999.0mph /  -1607.7km/h 60% 0.00in /  0mm
12:28 44.4 °F /  6.9 °C 31.8 °F /  -0.1 °C 23.53in /  796.7hPa NNW 3.2mph /  5.1km/h -999.0mph /  -1607.7km/h 61% 0.00in /  0mm
12:43 44.1 °F /  6.7 °C 31.9 °F /  -0.1 °C 23.53in /  796.7hPa NNW 4.2mph /  6.8km/h -999.0mph /  -1607.7km/h 62% 0.00in /  0mm
12:59 44.6 °F /  7 °C 32.8 °F /  0.4 °C 23.53in /  796.7hPa Calm   -999.0mph /  -1607.7km/h 63% 0.00in /  0mm
13:14 45.7 °F /  7.6 °C 33.0 °F /  0.6 °C 23.52in /  796.4hPa Calm   -999.0mph /  -1607.7km/h 61% 0.00in /  0mm
13:29 45.0 °F /  7.2 °C 32.8 °F /  0.4 °C 23.51in /  796hPa SW 1.1mph /  1.8km/h -999.0mph /  -1607.7km/h 62% 0.00in /  0mm
13:45 44.4 °F /  6.9 °C 32.6 °F /  0.3 °C 23.52in /  796.4hPa WNW 9.4mph /  15.1km/h -999.0mph /  -1607.7km/h 63% 0.00in /  0mm
14:00 45.0 °F /  7.2 °C 33.6 °F /  0.9 °C 23.52in /  796.4hPa NNW 4.2mph /  6.8km/h -999.0mph /  -1607.7km/h 64% 0.00in /  0mm
14:15 44.8 °F /  7.1 °C 34.1 °F /  1.2 °C 23.52in /  796.4hPa North 6.8mph /  10.9km/h -999.0mph /  -1607.7km/h 66% 0.00in /  0mm
14:30 44.4 °F /  6.9 °C 34.1 °F /  1.2 °C 23.52in /  796.4hPa Calm   -999.0mph /  -1607.7km/h 67% 0.00in /  0mm
14:45 45.0 °F /  7.2 °C 33.2 °F /  0.7 °C 23.51in /  796hPa Calm   -999.0mph /  -1607.7km/h 63% 0.00in /  0mm
15:01 45.3 °F /  7.4 °C 33.0 °F /  0.6 °C 23.51in /  796hPa Calm   -999.0mph /  -1607.7km/h 62% 0.00in /  0mm
15:16 45.0 °F /  7.2 °C 33.6 °F /  0.9 °C 23.51in /  796hPa NNE 1.7mph /  2.7km/h -999.0mph /  -1607.7km/h 64% 0.00in /  0mm
15:31 44.1 °F /  6.7 °C 33.8 °F /  1 °C 23.52in /  796.4hPa NW 1.7mph /  2.7km/h -999.0mph /  -1607.7km/h 67% 0.00in /  0mm
15:46 43.7 °F /  6.5 °C 33.5 °F /  0.8 °C 23.51in /  796hPa Calm   -999.0mph /  -1607.7km/h 67% 0.00in /  0mm
16:02 43.2 °F /  6.2 °C 33.4 °F /  0.8 °C 23.52in /  796.4hPa Calm   -999.0mph /  -1607.7km/h 68% 0.00in /  0mm
16:17 42.8 °F /  6 °C 33.3 °F /  0.7 °C 23.52in /  796.4hPa West 1.1mph /  1.8km/h -999.0mph /  -1607.7km/h 69% 0.00in /  0mm
16:32 41.5 °F /  5.3 °C 33.5 °F /  0.8 °C 23.52in /  796.4hPa Calm   -999.0mph /  -1607.7km/h 73% 0.00in /  0mm
16:47 40.5 °F /  4.7 °C 32.9 °F /  0.5 °C 23.52in /  796.4hPa Calm   -999.0mph /  -1607.7km/h 74% 0.00in /  0mm
17:02 39.4 °F /  4.1 °C 32.5 °F /  0.3 °C 23.53in /  796.7hPa Calm   -999.0mph /  -1607.7km/h 76% 0.00in /  0mm
17:18 38.7 °F /  3.7 °C 32.4 °F /  0.2 °C 23.53in /  796.7hPa Calm   -999.0mph /  -1607.7km/h 78% 0.00in /  0mm
17:33 38.1 °F /  3.4 °C 32.5 °F /  0.3 °C 23.53in /  796.7hPa Calm   -999.0mph /  -1607.7km/h 80% 0.00in /  0mm
17:48 37.8 °F /  3.2 °C 32.5 °F /  0.3 °C 23.53in /  796.7hPa Calm   -999.0mph /  -1607.7km/h 81% 0.00in /  0mm
18:03 37.4 °F /  3 °C 32.4 °F /  0.2 °C 23.54in /  797.1hPa Calm   -999.0mph /  -1607.7km/h 82% 0.00in /  0mm
18:18 36.9 °F /  2.7 °C 32.2 °F /  0.1 °C 23.53in /  796.7hPa Calm   -999.0mph /  -1607.7km/h 83% 0.00in /  0mm
18:34 36.1 °F /  2.3 °C 31.7 °F /  -0.2 °C 23.54in /  797.1hPa Calm   -999.0mph /  -1607.7km/h 84% 0.00in /  0mm
18:49 35.6 °F /  2 °C 31.5 °F /  -0.3 °C 23.54in /  797.1hPa Calm   -999.0mph /  -1607.7km/h 85% 0.00in /  0mm
19:04 35.2 °F /  1.8 °C 31.4 °F /  -0.3 °C 23.53in /  796.7hPa Calm   -999.0mph /  -1607.7km/h 86% 0.00in /  0mm
19:19 35.2 °F /  1.8 °C 31.7 °F /  -0.2 °C 23.54in /  797.1hPa Calm   -999.0mph /  -1607.7km/h 87% 0.00in /  0mm
19:34 34.9 °F /  1.6 °C 31.4 °F /  -0.3 °C 23.53in /  796.7hPa Calm   -999.0mph /  -1607.7km/h 87% 0.00in /  0mm
19:50 35.8 °F /  2.1 °C 31.7 °F /  -0.2 °C 23.53in /  796.7hPa Calm   -999.0mph /  -1607.7km/h 85% 0.00in /  0mm
20:05 37.9 °F /  3.3 °C 31.7 °F /  -0.2 °C 23.53in /  796.7hPa South 4.2mph /  6.8km/h -999.0mph /  -1607.7km/h 78% 0.00in /  0mm
20:20 41.0 °F /  5 °C 31.6 °F /  -0.2 °C 23.53in /  796.7hPa SE 4.7mph /  7.6km/h -999.0mph /  -1607.7km/h 69% 0.00in /  0mm
20:35 40.6 °F /  4.8 °C 31.2 °F /  -0.4 °C 23.53in /  796.7hPa SSW 3.2mph /  5.1km/h -999.0mph /  -1607.7km/h 69% 0.00in /  0mm
20:51 41.2 °F /  5.1 °C 31.8 °F /  -0.1 °C 23.53in /  796.7hPa SW 2.7mph /  4.3km/h -999.0mph /  -1607.7km/h 69% 0.00in /  0mm
21:06 40.5 °F /  4.7 °C 31.1 °F /  -0.5 °C 23.53in /  796.7hPa SSE 3.7mph /  6km/h -999.0mph /  -1607.7km/h 69% 0.00in /  0mm
21:21 39.9 °F /  4.4 °C 30.2 °F /  -1 °C 23.53in /  796.7hPa NE 1.1mph /  1.8km/h -999.0mph /  -1607.7km/h 68% 0.00in /  0mm
21:36 39.6 °F /  4.2 °C 28.0 °F /  -2.2 °C 23.54in /  797.1hPa West 5.3mph /  8.5km/h -999.0mph /  -1607.7km/h 63% 0.00in /  0mm
21:51 39.4 °F /  4.1 °C 27.1 °F /  -2.7 °C 23.54in /  797.1hPa SE 1.7mph /  2.7km/h -999.0mph /  -1607.7km/h 61% 0.00in /  0mm
22:07 39.0 °F /  3.9 °C 26.7 °F /  -2.9 °C 23.55in /  797.4hPa NE 2.7mph /  4.3km/h -999.0mph /  -1607.7km/h 61% 0.00in /  0mm
22:22 38.3 °F /  3.5 °C 26.8 °F /  -2.9 °C 23.55in /  797.4hPa NNW 1.7mph /  2.7km/h -999.0mph /  -1607.7km/h 63% 0.00in /  0mm
22:37 38.3 °F /  3.5 °C 28.7 °F /  -1.8 °C 23.54in /  797.1hPa Calm   -999.0mph /  -1607.7km/h 68% 0.00in /  0mm
22:52 39.4 °F /  4.1 °C 29.7 °F /  -1.3 °C 23.54in /  797.1hPa NNW 3.7mph /  6km/h -999.0mph /  -1607.7km/h 68% 0.00in /  0mm
23:08 39.9 °F /  4.4 °C 29.8 °F /  -1.2 °C 23.54in /  797.1hPa WNW 5.8mph /  9.3km/h -999.0mph /  -1607.7km/h 67% 0.00in /  0mm
23:24 39.9 °F /  4.4 °C 30.2 °F /  -1 °C 23.54in /  797.1hPa Calm   -999.0mph /  -1607.7km/h 68% 0.00in /  0mm
23:39 39.9 °F /  4.4 °C 30.2 °F /  -1 °C 23.53in /  796.7hPa West 3.2mph /  5.1km/h -999.0mph /  -1607.7km/h 68% 0.00in /  0mm
23:54 39.6 °F /  4.2 °C 29.5 °F /  -1.4 °C 23.53in /  796.7hPa NNW 5.3mph /  8.5km/h -999.0mph /  -1607.7km/h 67% 0.00in /  0mm
Big Bear CA Weather